createdAt,value
2024-05-09T00:00:36.219Z,102830.88
2024-05-09T00:03:07.914Z,102834.47
2024-05-09T00:05:35.420Z,102839.66
2024-05-09T00:08:02.611Z,102827.78
2024-05-09T00:10:35.797Z,102832.84
2024-05-09T00:13:05.219Z,102831.94
2024-05-09T00:15:33.366Z,102825.63
2024-05-09T00:18:00.391Z,102830.69
2024-05-09T00:20:35.299Z,102835.97
2024-05-09T00:23:07.052Z,102825.25
2024-05-09T00:25:34.170Z,102822.59
2024-05-09T00:28:00.917Z,102818.91
2024-05-09T00:30:33.763Z,102817.78
2024-05-09T00:33:03.854Z,102817.78
2024-05-09T00:35:31.234Z,102822.94
2024-05-09T00:37:57.970Z,102813.28
2024-05-09T00:40:35.013Z,102818.44
2024-05-09T00:43:06.163Z,102813.97
2024-05-09T00:45:34.371Z,102812.91
2024-05-09T00:48:06.753Z,102802.31
2024-05-09T00:50:37.461Z,102811.06
2024-05-09T00:53:06.563Z,102807.50
2024-05-09T00:55:35.197Z,102803.09
2024-05-09T00:58:02.844Z,102809.59
2024-05-09T01:00:37.800Z,102808.66
2024-05-09T01:03:07.442Z,102812.00
2024-05-09T01:05:35.051Z,102807.50
2024-05-09T01:08:03.102Z,102807.59
2024-05-09T01:10:34.529Z,102807.97
2024-05-09T01:13:03.893Z,102803.81
2024-05-09T01:15:30.661Z,102801.97
2024-05-09T01:17:58.416Z,102799.19
2024-05-09T01:20:36.579Z,102806.13
2024-05-09T01:23:08.823Z,102804.28
2024-05-09T01:25:35.814Z,102802.44
2024-05-09T01:28:02.486Z,102802.31
2024-05-09T01:30:34.624Z,102794.13
2024-05-09T01:33:04.660Z,102795.38
2024-05-09T01:35:32.001Z,102798.63
2024-05-09T01:37:58.774Z,102796.41
2024-05-09T01:40:35.408Z,102787.47
2024-05-09T01:43:05.045Z,102784.44
2024-05-09T01:45:31.646Z,102785.94
2024-05-09T01:47:58.796Z,102786.66
2024-05-09T01:50:36.990Z,102786.53
2024-05-09T01:53:07.693Z,102787.56
2024-05-09T01:55:34.506Z,102788.34
2024-05-09T01:58:01.052Z,102786.25
2024-05-09T02:00:37.868Z,102783.41
2024-05-09T02:03:15.894Z,102790.84
2024-05-09T02:05:48.479Z,102791.06
2024-05-09T02:08:20.860Z,102787.84
2024-05-09T02:10:49.820Z,102793.56
2024-05-09T02:13:17.135Z,102787.06
2024-05-09T02:15:44.315Z,102791.09
2024-05-09T02:18:11.706Z,102791.78
2024-05-09T02:20:40.813Z,102789.13
2024-05-09T02:23:08.713Z,102785.94
2024-05-09T02:25:35.607Z,102789.84
2024-05-09T02:28:02.690Z,102786.88
2024-05-09T02:30:38.460Z,102796.94
2024-05-09T02:33:09.402Z,102797.53
2024-05-09T02:35:37.283Z,102793.44
2024-05-09T02:38:04.337Z,102793.09
2024-05-09T02:40:37.179Z,102787.69
2024-05-09T02:43:06.549Z,102782.03
2024-05-09T02:45:33.532Z,102787.56
2024-05-09T02:48:00.788Z,102789.28
2024-05-09T02:50:34.551Z,102785.50
2024-05-09T02:53:06.034Z,102781.66
2024-05-09T02:55:33.042Z,102778.66
2024-05-09T02:57:59.831Z,102785.56
2024-05-09T03:00:34.828Z,102788.88
2024-05-09T03:03:12.084Z,102791.97
2024-05-09T03:05:42.590Z,102776.88
2024-05-09T03:08:09.665Z,102774.91
2024-05-09T03:10:38.511Z,102776.28
2024-05-09T03:13:12.797Z,102766.38
2024-05-09T03:15:40.666Z,102775.88
2024-05-09T03:18:07.649Z,102775.66
2024-05-09T03:20:36.188Z,102768.28
2024-05-09T03:23:05.510Z,102770.66
2024-05-09T03:25:33.127Z,102769.25
2024-05-09T03:27:59.995Z,102771.53
2024-05-09T03:30:36.672Z,102768.50
2024-05-09T03:33:13.927Z,102768.25
2024-05-09T03:35:41.480Z,102773.16
2024-05-09T03:38:08.299Z,102772.00
2024-05-09T03:40:35.215Z,102768.41
2024-05-09T03:43:01.832Z,102767.41
2024-05-09T03:45:28.435Z,102773.59
2024-05-09T03:47:55.261Z,102767.25
2024-05-09T03:50:30.009Z,102770.56
2024-05-09T03:53:01.345Z,102765.84
2024-05-09T03:55:28.374Z,102762.94
2024-05-09T03:57:55.081Z,102764.41
2024-05-09T04:00:30.770Z,102765.88
2024-05-09T04:03:04.142Z,102768.25
2024-05-09T04:05:31.439Z,102777.66
2024-05-09T04:07:58.373Z,102775.81
2024-05-09T04:10:32.406Z,102770.28
2024-05-09T04:13:00.787Z,102770.94
2024-05-09T04:15:27.351Z,102773.72
2024-05-09T04:17:54.230Z,102777.41
2024-05-09T04:20:29.588Z,102778.19
2024-05-09T04:23:04.283Z,102780.97
2024-05-09T04:25:31.958Z,102784.53
2024-05-09T04:27:58.584Z,102782.94
2024-05-09T04:30:34.584Z,102775.41
2024-05-09T04:33:06.319Z,102779.31
2024-05-09T04:35:34.041Z,102781.44
2024-05-09T04:38:00.979Z,102786.69
2024-05-09T04:40:33.226Z,102783.75
2024-05-09T04:43:03.935Z,102784.38
2024-05-09T04:45:30.700Z,102778.72
2024-05-09T04:47:57.781Z,102774.25
2024-05-09T04:50:33.874Z,102771.22
2024-05-09T04:53:05.120Z,102778.88
2024-05-09T04:55:32.672Z,102775.34
2024-05-09T04:57:59.256Z,102785.72
2024-05-09T05:00:32.615Z,102779.03
2024-05-09T05:03:07.004Z,102790.31
2024-05-09T05:05:36.142Z,102781.81
2024-05-09T05:08:02.860Z,102781.69
2024-05-09T05:10:35.431Z,102783.00
2024-05-09T05:13:17.943Z,102775.66
2024-05-09T05:15:50.021Z,102776.50
2024-05-09T05:18:17.208Z,102776.00
2024-05-09T05:20:44.629Z,102786.88
2024-05-09T05:23:13.561Z,102798.63
2024-05-09T05:25:41.374Z,102801.31
2024-05-09T05:28:08.261Z,102799.09
2024-05-09T05:30:37.602Z,102799.78
2024-05-09T05:33:06.512Z,102800.81
2024-05-09T05:35:34.548Z,102801.00
2024-05-09T05:38:02.164Z,102807.34
2024-05-09T05:40:36.205Z,102804.13
2024-05-09T05:43:10.266Z,102798.56
2024-05-09T05:45:37.429Z,102799.69
2024-05-09T05:48:05.761Z,102804.59
2024-05-09T05:50:36.495Z,102800.78
2024-05-09T05:53:09.048Z,102809.50
2024-05-09T05:55:37.354Z,102807.63
2024-05-09T05:58:04.458Z,102806.53
2024-05-09T06:00:38.187Z,102808.75
2024-05-09T06:03:10.451Z,102806.63
2024-05-09T06:05:39.972Z,102796.50
2024-05-09T06:08:07.377Z,102803.09
2024-05-09T06:10:38.895Z,102799.41
2024-05-09T06:13:08.887Z,102800.16
2024-05-09T06:15:35.504Z,102798.75
2024-05-09T06:18:05.646Z,102796.75
2024-05-09T06:20:36.442Z,102797.63
2024-05-09T06:23:09.365Z,102799.88
2024-05-09T06:25:36.926Z,102792.41
2024-05-09T06:28:04.020Z,102792.22
2024-05-09T06:30:38.398Z,102792.66
2024-05-09T06:33:11.181Z,102787.59
2024-05-09T06:35:40.592Z,102787.59
2024-05-09T06:38:09.512Z,102779.03
2024-05-09T06:40:42.647Z,102783.81
2024-05-09T06:43:16.339Z,102781.50
2024-05-09T06:45:47.367Z,102784.47
2024-05-09T06:48:14.887Z,102780.59
2024-05-09T06:50:42.053Z,102780.03
2024-05-09T06:53:09.502Z,102785.81
2024-05-09T06:55:37.338Z,102780.31
2024-05-09T06:58:06.698Z,102785.34
2024-05-09T07:00:39.000Z,102788.97
2024-05-09T07:03:14.689Z,102785.72
2024-05-09T07:05:43.768Z,102785.28
2024-05-09T07:08:10.568Z,102789.00
2024-05-09T07:10:37.634Z,102781.53
2024-05-09T07:13:11.700Z,102786.44
2024-05-09T07:15:39.104Z,102787.66
2024-05-09T07:18:13.857Z,102779.78
2024-05-09T07:20:41.100Z,102780.28
2024-05-09T07:23:11.763Z,102783.63
2024-05-09T07:25:39.542Z,102782.47
2024-05-09T07:28:09.933Z,102787.97
2024-05-09T07:30:36.539Z,102786.03
2024-05-09T07:33:03.735Z,102785.03
2024-05-09T07:35:31.068Z,102788.50
2024-05-09T07:37:58.121Z,102781.72
2024-05-09T07:40:32.835Z,102775.34
2024-05-09T07:43:04.015Z,102772.25
2024-05-09T07:45:47.762Z,102769.06
2024-05-09T07:53:38.690Z,102757.31
2024-05-09T07:56:09.103Z,102764.09
2024-05-09T07:58:36.515Z,102764.88
2024-05-09T08:01:03.376Z,102746.84
2024-05-09T08:03:30.535Z,102756.28
2024-05-09T08:05:57.217Z,102755.22
2024-05-09T08:08:23.859Z,102756.56
2024-05-09T08:10:51.327Z,102753.28
2024-05-09T08:13:18.214Z,102754.84
2024-05-09T08:15:45.071Z,102744.66
2024-05-09T08:18:12.123Z,102748.22
2024-05-09T08:20:39.816Z,102742.44
2024-05-09T08:23:06.935Z,102744.53
2024-05-09T08:25:33.648Z,102746.00
2024-05-09T08:28:00.394Z,102747.66
2024-05-09T08:30:33.515Z,102748.06
2024-05-09T08:33:05.013Z,102747.06
2024-05-09T08:35:32.796Z,102754.47
2024-05-09T08:37:59.917Z,102753.63
2024-05-09T08:40:34.109Z,102753.00
2024-05-09T08:43:06.759Z,102746.50
2024-05-09T08:45:35.228Z,102744.19
2024-05-09T08:48:06.272Z,102751.97
2024-05-09T08:50:38.742Z,102741.91
2024-05-09T08:53:07.736Z,102743.31
2024-05-09T08:55:35.861Z,102743.75
2024-05-09T08:58:05.591Z,102750.03
2024-05-09T09:00:37.003Z,102736.50
2024-05-09T09:03:09.100Z,102743.13
2024-05-09T09:05:38.803Z,102744.91
2024-05-09T09:08:07.943Z,102742.97
2024-05-09T09:10:35.252Z,102747.03
2024-05-09T09:13:04.470Z,102745.25
2024-05-09T09:15:31.774Z,102743.44
2024-05-09T09:18:00.215Z,102746.16
2024-05-09T09:20:35.300Z,102735.25
2024-05-09T09:23:03.775Z,102742.44
2024-05-09T09:25:30.669Z,102739.63
2024-05-09T09:27:58.512Z,102738.94
2024-05-09T09:30:35.112Z,102735.78
2024-05-09T09:33:08.595Z,102736.59
2024-05-09T09:35:36.287Z,102723.72
2024-05-09T09:38:04.745Z,102730.31
2024-05-09T09:40:37.590Z,102725.22
2024-05-09T09:43:14.586Z,102723.22
2024-05-09T09:45:43.252Z,102714.47
2024-05-09T09:48:10.762Z,102714.06
2024-05-09T09:50:38.047Z,102716.13
2024-05-09T09:53:07.527Z,102717.09
2024-05-09T09:55:35.660Z,102709.84
2024-05-09T09:58:04.068Z,102710.59
2024-05-09T10:00:33.386Z,102705.22
2024-05-09T10:03:01.802Z,102702.56
2024-05-09T10:05:29.889Z,102701.66
2024-05-09T10:07:58.566Z,102708.94
2024-05-09T10:10:32.197Z,102712.47
2024-05-09T10:13:04.298Z,102707.88
2024-05-09T10:15:52.342Z,102698.00
2024-05-09T10:18:28.156Z,102695.28
2024-05-09T10:20:57.439Z,102697.16
2024-05-09T10:23:36.287Z,102704.34
2024-05-09T10:26:06.479Z,102701.84
2024-05-09T10:28:37.625Z,102698.63
2024-05-09T10:31:11.010Z,102693.44
2024-05-09T10:33:52.488Z,102695.59
2024-05-09T10:36:20.826Z,102696.06
2024-05-09T10:38:49.339Z,102688.75
2024-05-09T10:41:20.278Z,102685.50
2024-05-09T10:43:47.743Z,102691.69
2024-05-09T10:46:14.970Z,102676.28
2024-05-09T10:48:43.099Z,102671.88
2024-05-09T10:51:09.910Z,102674.03
2024-05-09T10:53:43.248Z,102668.47
2024-05-09T10:56:10.557Z,102674.78
2024-05-09T10:58:37.398Z,102676.16
2024-05-09T11:01:07.013Z,102673.88
2024-05-09T11:03:35.492Z,102670.19
2024-05-09T11:06:02.754Z,102669.00
2024-05-09T11:08:31.738Z,102670.94
2024-05-09T11:10:59.572Z,102670.09
2024-05-09T11:13:34.395Z,102665.78
2024-05-09T11:16:01.996Z,102664.13
2024-05-09T11:18:33.437Z,102658.59
2024-05-09T11:21:02.968Z,102658.31
2024-05-09T11:23:31.483Z,102663.34
2024-05-09T11:25:58.967Z,102657.84
2024-05-09T11:28:28.953Z,102644.56
2024-05-09T11:31:08.738Z,102653.97
2024-05-09T11:33:41.334Z,102657.38
2024-05-09T11:36:09.656Z,102648.97
2024-05-09T11:38:36.725Z,102644.31
2024-05-09T11:41:04.872Z,102637.09
2024-05-09T11:43:32.035Z,102642.66
2024-05-09T11:45:59.158Z,102640.69
2024-05-09T11:48:26.470Z,102640.72
2024-05-09T11:50:54.825Z,102641.72
2024-05-09T11:53:21.681Z,102630.81
2024-05-09T11:55:48.480Z,102637.69
2024-05-09T11:58:17.611Z,102625.38
2024-05-09T12:00:45.173Z,102629.50
2024-05-09T12:03:12.414Z,102623.44
2024-05-09T12:05:39.315Z,102623.38
2024-05-09T12:08:06.696Z,102626.78
2024-05-09T12:10:35.682Z,102624.53
2024-05-09T12:13:05.238Z,102617.91
2024-05-09T12:15:34.044Z,102621.41
2024-05-09T12:18:03.625Z,102611.22
2024-05-09T12:20:36.742Z,102609.44
2024-05-09T12:23:05.912Z,102614.28
2024-05-09T12:25:32.562Z,102607.88
2024-05-09T12:27:59.551Z,102602.53
2024-05-09T12:30:35.346Z,102607.34
2024-05-09T12:33:06.108Z,102603.81
2024-05-09T12:35:33.206Z,102597.78
2024-05-09T12:38:00.155Z,102596.13
2024-05-09T12:40:35.396Z,102592.28
2024-05-09T12:43:06.195Z,102598.75
2024-05-09T12:45:33.152Z,102593.63
2024-05-09T12:48:00.033Z,102583.03
2024-05-09T12:50:32.450Z,102590.53
2024-05-09T12:53:01.822Z,102587.50
2024-05-09T12:55:33.785Z,102585.59
2024-05-09T12:58:07.765Z,102587.13
2024-05-09T13:00:34.921Z,102582.97
2024-05-09T13:03:01.824Z,102574.28
2024-05-09T13:05:29.333Z,102570.66
2024-05-09T13:07:57.074Z,102570.34
2024-05-09T13:10:31.278Z,102570.31
2024-05-09T13:13:00.481Z,102560.94
2024-05-09T13:15:27.648Z,102563.22
2024-05-09T13:17:56.401Z,102547.94
2024-05-09T13:20:31.343Z,102560.38
2024-05-09T13:23:02.343Z,102555.25
2024-05-09T13:25:30.056Z,102569.31
2024-05-09T13:27:57.831Z,102567.16
2024-05-09T13:30:30.057Z,102560.59
2024-05-09T13:33:06.367Z,102564.69
2024-05-09T13:35:34.911Z,102565.44
2024-05-09T13:38:02.683Z,102565.50
2024-05-09T13:40:33.841Z,102562.38
2024-05-09T13:43:03.206Z,102561.09
2024-05-09T13:45:30.191Z,102565.38
2024-05-09T13:47:57.179Z,102561.50
2024-05-09T13:50:32.960Z,102560.31
2024-05-09T13:53:02.489Z,102564.59
2024-05-09T13:55:29.161Z,102564.25
2024-05-09T13:57:56.300Z,102563.78
2024-05-09T14:00:37.380Z,102553.25
2024-05-09T14:03:09.887Z,102550.75
2024-05-09T14:05:36.961Z,102546.19
2024-05-09T14:08:04.175Z,102547.97
2024-05-09T14:10:32.092Z,102541.09
2024-05-09T14:13:00.269Z,102546.78
2024-05-09T14:15:27.281Z,102541.13
2024-05-09T14:17:54.973Z,102541.41
2024-05-09T14:22:51.199Z,102541.13
2024-05-09T14:25:17.920Z,102537.00
2024-05-09T14:27:44.629Z,102538.72
2024-05-09T14:30:18.365Z,102540.91
2024-05-09T14:32:52.948Z,102538.69
2024-05-09T14:35:19.831Z,102533.63
2024-05-09T14:37:46.557Z,102533.13
2024-05-09T14:40:30.337Z,102524.16
2024-05-09T14:43:03.172Z,102527.53
2024-05-09T14:45:30.226Z,102525.91
2024-05-09T14:47:57.317Z,102518.41
2024-05-09T14:50:32.548Z,102519.25
2024-05-09T14:53:03.598Z,102519.69
2024-05-09T14:55:30.569Z,102508.38
2024-05-09T14:57:57.390Z,102507.50
2024-05-09T15:00:28.954Z,102499.13
2024-05-09T15:03:00.549Z,102497.09
2024-05-09T15:05:27.521Z,102505.06
2024-05-09T15:07:57.290Z,102501.88
2024-05-09T15:10:33.148Z,102491.34
2024-05-09T15:13:02.187Z,102488.59
2024-05-09T15:15:28.997Z,102488.41
2024-05-09T15:17:55.967Z,102486.28
2024-05-09T15:20:31.026Z,102475.28
2024-05-09T15:23:02.099Z,102478.19
2024-05-09T15:25:28.982Z,102482.09
2024-05-09T15:27:55.908Z,102475.53
2024-05-09T15:32:52.442Z,102468.72
2024-05-09T15:35:19.190Z,102474.41
2024-05-09T15:37:48.244Z,102464.94
2024-05-09T15:40:21.595Z,102460.34
2024-05-09T15:42:53.412Z,102461.94
2024-05-09T15:45:20.100Z,102465.72
2024-05-09T15:47:46.821Z,102469.97
2024-05-09T15:50:20.456Z,102459.75
2024-05-09T15:52:55.361Z,102463.00
2024-05-09T15:55:22.073Z,102465.47
2024-05-09T15:57:48.800Z,102459.75
2024-05-09T16:00:24.792Z,102461.84
2024-05-09T16:03:00.247Z,102445.50
2024-05-09T16:05:27.148Z,102446.25
2024-05-09T16:07:54.056Z,102462.13
2024-05-09T16:10:25.910Z,102450.94
2024-05-09T16:12:58.823Z,102446.25
2024-05-09T16:15:26.166Z,102435.09
2024-05-09T16:17:53.050Z,102439.69
2024-05-09T16:20:33.157Z,102442.91
2024-05-09T16:23:05.174Z,102437.94
2024-05-09T16:25:31.790Z,102437.81
2024-05-09T16:27:58.549Z,102427.59
2024-05-09T16:30:31.965Z,102422.28
2024-05-09T16:33:02.535Z,102424.72
2024-05-09T16:35:29.619Z,102435.31
2024-05-09T16:37:56.288Z,102428.91
2024-05-09T16:40:30.301Z,102429.78
2024-05-09T16:43:04.972Z,102423.44
2024-05-09T16:45:31.998Z,102427.63
2024-05-09T16:47:59.702Z,102419.41
2024-05-09T16:50:32.310Z,102419.00
2024-05-09T16:53:01.943Z,102412.59
2024-05-09T16:55:28.932Z,102419.78
2024-05-09T16:57:56.862Z,102409.03
2024-05-09T17:00:35.157Z,102418.19
2024-05-09T17:03:08.430Z,102418.97
2024-05-09T17:05:35.991Z,102407.66
2024-05-09T17:08:03.225Z,102406.16
2024-05-09T17:10:33.596Z,102412.84
2024-05-09T17:13:02.551Z,102420.44
2024-05-09T17:15:29.838Z,102416.09
2024-05-09T17:17:56.805Z,102424.13
2024-05-09T17:20:31.334Z,102422.44
2024-05-09T17:23:02.361Z,102421.97
2024-05-09T17:25:29.390Z,102425.75
2024-05-09T17:27:56.678Z,102419.84
2024-05-09T17:30:31.582Z,102420.41
2024-05-09T17:33:03.206Z,102421.41
2024-05-09T17:35:31.064Z,102422.75
2024-05-09T17:37:58.488Z,102419.91
2024-05-09T17:40:31.490Z,102417.47
2024-05-09T17:43:02.142Z,102412.34
2024-05-09T17:45:28.991Z,102419.31
2024-05-09T17:47:55.967Z,102414.56
2024-05-09T17:50:30.265Z,102414.06
2024-05-09T17:53:01.517Z,102414.97
2024-05-09T17:55:28.646Z,102413.88
2024-05-09T17:57:55.558Z,102412.63
2024-05-09T18:00:32.854Z,102412.38
2024-05-09T18:03:05.704Z,102405.75
2024-05-09T18:05:32.971Z,102412.34
2024-05-09T18:07:59.988Z,102403.91
2024-05-09T18:10:33.731Z,102410.63
2024-05-09T18:13:05.466Z,102415.50
2024-05-09T18:15:32.668Z,102412.44
2024-05-09T18:17:59.744Z,102410.38
2024-05-09T18:20:36.660Z,102418.19
2024-05-09T18:23:08.897Z,102414.19
2024-05-09T18:25:35.484Z,102415.50
2024-05-09T18:28:03.268Z,102413.44
2024-05-09T18:30:34.839Z,102421.19
2024-05-09T18:33:04.475Z,102417.44
2024-05-09T18:35:31.838Z,102418.91
2024-05-09T18:37:58.545Z,102409.78
2024-05-09T18:40:32.515Z,102420.28
2024-05-09T18:43:03.384Z,102407.28
2024-05-09T18:45:30.540Z,102420.38
2024-05-09T18:47:57.536Z,102420.13
2024-05-09T18:50:32.394Z,102425.16
2024-05-09T18:53:06.861Z,102427.34
2024-05-09T18:55:33.516Z,102427.91
2024-05-09T18:58:00.470Z,102428.44
2024-05-09T19:00:34.326Z,102429.22
2024-05-09T19:03:05.985Z,102427.22
2024-05-09T19:05:35.066Z,102432.31
2024-05-09T19:08:02.742Z,102426.69
2024-05-09T19:10:34.147Z,102432.56
2024-05-09T19:13:05.741Z,102429.53
2024-05-09T19:15:36.168Z,102431.22
2024-05-09T19:18:03.664Z,102434.81
2024-05-09T19:20:34.471Z,102435.59
2024-05-09T19:23:02.683Z,102437.16
2024-05-09T19:25:29.434Z,102440.50
2024-05-09T19:27:56.095Z,102439.31
2024-05-09T19:30:30.400Z,102445.28
2024-05-09T19:33:05.841Z,102440.66
2024-05-09T19:35:32.946Z,102446.00
2024-05-09T19:37:59.783Z,102440.56
2024-05-09T19:40:31.392Z,102443.25
2024-05-09T19:43:01.375Z,102435.03
2024-05-09T19:45:28.620Z,102435.78
2024-05-09T19:47:55.542Z,102426.41
2024-05-09T19:50:30.839Z,102428.84
2024-05-09T19:53:04.091Z,102433.97
2024-05-09T19:55:30.665Z,102435.56
2024-05-09T19:57:58.234Z,102433.72
2024-05-09T20:00:32.659Z,102436.41
2024-05-09T20:03:02.778Z,102437.41
2024-05-09T20:05:32.940Z,102432.97
2024-05-09T20:08:00.037Z,102428.38
2024-05-09T20:10:31.763Z,102425.66
2024-05-09T20:13:00.861Z,102429.94
2024-05-09T20:15:27.598Z,102435.13
2024-05-09T20:17:55.134Z,102431.50
2024-05-09T20:20:32.455Z,102433.09
2024-05-09T20:23:04.346Z,102438.22
2024-05-09T20:25:30.914Z,102441.56
2024-05-09T20:27:57.676Z,102441.41
2024-05-09T20:30:31.318Z,102443.94
2024-05-09T20:33:01.757Z,102439.38
2024-05-09T20:35:31.847Z,102449.81
2024-05-09T20:40:31.483Z,102453.03
2024-05-09T20:43:01.660Z,102455.47
2024-05-09T20:45:28.329Z,102448.06
2024-05-09T20:47:55.283Z,102448.75
2024-05-09T20:50:29.185Z,102449.41
2024-05-09T20:53:03.931Z,102452.88
2024-05-09T20:55:30.815Z,102454.28
2024-05-09T20:57:57.736Z,102455.00
2024-05-09T21:00:33.783Z,102457.28
2024-05-09T21:03:06.525Z,102457.94
2024-05-09T21:05:34.137Z,102455.88
2024-05-09T21:08:01.021Z,102460.31
2024-05-09T21:10:32.101Z,102462.72
2024-05-09T21:13:00.255Z,102463.50
2024-05-09T21:15:27.100Z,102459.81
2024-05-09T21:17:53.771Z,102458.91
2024-05-09T21:20:24.225Z,102457.16
2024-05-09T21:22:57.545Z,102457.06
2024-05-09T21:25:24.274Z,102462.13
2024-05-09T21:27:51.083Z,102455.00
2024-05-09T21:30:26.798Z,102460.25
2024-05-09T21:32:59.147Z,102461.09
2024-05-09T21:35:25.933Z,102453.66
2024-05-09T21:37:52.571Z,102458.94
2024-05-09T21:40:27.310Z,102449.06
2024-05-09T21:43:00.949Z,102453.38
2024-05-09T21:45:27.823Z,102451.47
2024-05-09T21:47:54.793Z,102447.78
2024-05-09T21:50:28.074Z,102450.41
2024-05-09T21:52:59.295Z,102448.56
2024-05-09T21:55:26.000Z,102448.66
2024-05-09T21:57:52.724Z,102450.41
2024-05-09T22:00:28.847Z,102453.91
2024-05-09T22:03:02.404Z,102451.31
2024-05-09T22:05:29.284Z,102454.81
2024-05-09T22:07:57.027Z,102457.56
2024-05-09T22:10:30.543Z,102454.81
2024-05-09T22:13:00.885Z,102453.06
2024-05-09T22:15:27.583Z,102452.06
2024-05-09T22:17:56.339Z,102449.31
2024-05-09T22:20:32.825Z,102451.06
2024-05-09T22:23:03.304Z,102448.22
2024-05-09T22:25:31.169Z,102449.00
2024-05-09T22:27:58.774Z,102455.06
2024-05-09T22:30:34.114Z,102453.06
2024-05-09T22:33:05.748Z,102452.91
2024-05-09T22:35:33.038Z,102449.97
2024-05-09T22:38:00.046Z,102448.00
2024-05-09T22:40:38.218Z,102454.91
2024-05-09T22:43:13.285Z,102452.00
2024-05-09T22:45:40.154Z,102452.56
2024-05-09T22:48:08.568Z,102454.06
2024-05-09T22:50:35.502Z,102451.97
2024-05-09T22:53:02.298Z,102454.28
2024-05-09T22:55:29.178Z,102458.63
2024-05-09T22:57:56.185Z,102451.22
2024-05-09T23:00:30.747Z,102455.44
2024-05-09T23:03:00.154Z,102448.13
2024-05-09T23:05:27.322Z,102456.66
2024-05-09T23:07:54.010Z,102455.69
2024-05-09T23:10:27.787Z,102455.50
2024-05-09T23:12:59.335Z,102448.34
2024-05-09T23:15:26.047Z,102453.41
2024-05-09T23:17:52.782Z,102447.91
2024-05-09T23:20:29.835Z,102446.97
2024-05-09T23:23:03.518Z,102452.13
2024-05-09T23:25:30.235Z,102448.47
2024-05-09T23:27:57.002Z,102444.81
2024-05-09T23:30:33.261Z,102450.03
2024-05-09T23:33:04.816Z,102445.34
2024-05-09T23:35:31.594Z,102441.81
2024-05-09T23:37:58.212Z,102436.38
2024-05-09T23:40:36.345Z,102438.94
2024-05-09T23:43:06.317Z,102438.66
2024-05-09T23:45:33.148Z,102440.41
2024-05-09T23:48:00.054Z,102434.94
2024-05-09T23:50:33.939Z,102441.19
2024-05-09T23:53:03.758Z,102442.19
2024-05-09T23:55:31.574Z,102440.34
2024-05-09T23:57:58.607Z,102441.00
